Time;durP1;ratioP1;P1;durP2;ratioP2;P2;SDS_P1;SDS_P2;PMS_P1;PMS_P2;Temp;Humidity;BMP_temperature;BMP_pressure;BME280_temperature;BME280_humidity;BME280_pressure;Samples;Min_cycle;Max_cycle;Signal;HPM_P1;HPM_P2
2022/09/25 00:01:58;;;;;;;10.60;2.70;;;;;;;-150.27;100.00;61272.81;5233555;28;20034;-74
2022/09/25 00:04:30;;;;;;;8.63;2.50;;;;;;;-150.27;100.00;61272.81;5213290;28;20366;-74
2022/09/25 00:07:01;;;;;;;11.17;2.23;;;;;;;-150.27;100.00;61272.81;5213389;28;20049;-74
2022/09/25 00:09:33;;;;;;;9.50;2.57;;;;;;;-150.27;100.00;61272.81;5211905;28;20481;-73
2022/09/25 00:12:04;;;;;;;13.83;2.40;;;;;;;-150.27;100.00;61272.81;5213547;28;20029;-74
2022/09/25 00:14:35;;;;;;;7.97;2.13;;;;;;;-150.27;100.00;61272.81;5213196;28;20428;-74
2022/09/25 00:17:06;;;;;;;9.13;1.90;;;;;;;-150.27;100.00;61272.81;5196105;28;20033;-73
2022/09/25 00:19:49;;;;;;;9.47;1.87;;;;;;;-150.27;100.00;61272.81;5213208;28;20034;-74
2022/09/25 00:22:26;;;;;;;9.07;1.73;;;;;;;-150.27;100.00;61272.81;5214868;28;20034;-74
2022/09/25 00:24:58;;;;;;;7.07;2.10;;;;;;;-150.27;100.00;61272.81;5216586;28;20040;-74
2022/09/25 00:27:29;;;;;;;6.20;1.80;;;;;;;-150.27;100.00;61272.81;5216979;28;20108;-74
2022/09/25 00:30:00;;;;;;;9.40;2.47;;;;;;;-150.27;100.00;61272.81;5217583;28;20093;-72
2022/09/25 00:32:32;;;;;;;8.90;2.27;;;;;;;-150.27;100.00;61272.81;5217174;28;20032;-73
2022/09/25 00:35:04;;;;;;;7.47;1.87;;;;;;;-150.27;100.00;61272.81;5217287;28;20472;-73
2022/09/25 00:37:35;;;;;;;8.10;2.07;;;;;;;-150.27;100.00;61272.81;5216782;28;20028;-75
2022/09/25 00:40:07;;;;;;;10.43;2.67;;;;;;;-150.27;100.00;61272.81;5216688;28;20053;-73
2022/09/25 00:42:39;;;;;;;6.30;2.30;;;;;;;-150.27;100.00;61272.81;5216758;28;20033;-77
2022/09/25 00:45:21;;;;;;;9.87;2.10;;;;;;;-150.27;100.00;61272.81;5217139;28;20516;-77
2022/09/25 00:48:01;;;;;;;9.33;2.10;;;;;;;-150.27;100.00;61272.81;5216564;28;20030;-77
2022/09/25 00:50:38;;;;;;;7.37;1.73;;;;;;;-150.27;100.00;61272.81;5216738;28;20029;-76
2022/09/25 00:53:18;;;;;;;7.80;1.93;;;;;;;-150.27;100.00;61272.81;5216817;28;20030;-73
2022/09/25 00:55:50;;;;;;;7.33;2.40;;;;;;;-150.27;100.00;61272.81;5216516;28;20034;-77
2022/09/25 00:58:26;;;;;;;12.97;2.53;;;;;;;-150.27;100.00;61272.81;5224865;28;20061;-76
2022/09/25 01:00:58;;;;;;;15.17;2.00;;;;;;;-150.27;100.00;61272.81;5216546;28;20092;-77
2022/09/25 01:03:30;;;;;;;7.80;2.07;;;;;;;-150.27;100.00;61272.81;5216299;28;20384;-76
2022/09/25 01:06:02;;;;;;;10.50;2.40;;;;;;;-150.27;100.00;61272.81;5217058;28;20029;-77
2022/09/25 01:08:34;;;;;;;8.83;2.27;;;;;;;-150.27;100.00;61272.81;5215782;28;20046;-76
2022/09/25 01:11:05;;;;;;;6.30;2.80;;;;;;;-150.27;100.00;61272.81;5198022;28;20555;-77
2022/09/25 01:13:37;;;;;;;10.80;2.20;;;;;;;-150.27;100.00;61272.81;5198953;28;20052;-76
2022/09/25 01:16:24;;;;;;;9.40;3.27;;;;;;;-150.27;100.00;61272.81;5216855;28;20030;-76
2022/09/25 01:19:32;;;;;;;9.43;2.50;;;;;;;-150.27;100.00;61272.81;5216693;28;20026;-77
2022/09/25 01:22:22;;;;;;;11.13;2.43;;;;;;;-150.27;100.00;61272.81;5216616;28;20582;-77
2022/09/25 01:25:25;;;;;;;9.30;2.27;;;;;;;-150.27;100.00;61272.81;5215434;28;20180;-77
2022/09/25 01:28:13;;;;;;;5.57;1.90;;;;;;;-150.27;100.00;61272.81;5199121;28;20060;-77
2022/09/25 01:30:49;;;;;;;12.47;3.87;;;;;;;-150.27;100.00;61272.81;5216412;28;20724;-77
2022/09/25 01:33:34;;;;;;;6.67;2.23;;;;;;;-150.27;100.00;61272.81;5215376;28;20377;-77
2022/09/25 01:36:11;;;;;;;;;;;;;;;-150.27;100.00;61272.81;5216943;28;20026;-77
2022/09/25 01:39:06;;;;;;;10.10;2.60;;;;;;;-150.27;100.00;61272.81;5198126;28;19940;-76
2022/09/25 01:41:57;;;;;;;13.80;3.17;;;;;;;-150.27;100.00;61272.81;5215210;28;20100;-77
2022/09/25 01:44:51;;;;;;;10.80;2.77;;;;;;;-150.27;100.00;61272.81;5215926;28;20112;-76
2022/09/25 01:47:28;;;;;;;5.27;1.63;;;;;;;-150.27;100.00;61272.81;5201808;28;20034;-78
2022/09/25 01:50:04;;;;;;;10.60;2.27;;;;;;;-150.27;100.00;61272.81;5216071;28;20065;-75
2022/09/25 01:52:49;;;;;;;12.50;2.73;;;;;;;-150.27;100.00;61272.81;5215919;28;20032;-76
2022/09/25 01:55:24;;;;;;;;;;;;;;;-150.27;100.00;61272.81;5215690;28;20545;-76
2022/09/25 01:58:04;;;;;;;12.75;2.30;;;;;;;-150.27;100.00;61272.81;5221713;28;19919;-77
2022/09/25 02:00:41;;;;;;;6.47;1.97;;;;;;;-150.27;100.00;61272.81;5234504;28;20031;-78
2022/09/25 02:03:29;;;;;;;10.20;2.20;;;;;;;-150.27;100.00;61272.81;5235479;28;20032;-79
2022/09/25 02:06:05;;;;;;;6.67;1.83;;;;;;;-150.27;100.00;61272.81;5224129;28;20041;-80
2022/09/25 02:08:44;;;;;;;11.13;2.30;;;;;;;-150.27;100.00;61272.81;5230454;28;20115;-76
2022/09/25 02:11:15;;;;;;;9.30;2.50;;;;;;;-150.27;100.00;61272.81;5210212;28;20132;-79
2022/09/25 02:13:56;;;;;;;6.70;1.73;;;;;;;-150.27;100.00;61272.81;5198120;28;20125;-76
2022/09/25 02:16:34;;;;;;;10.53;2.43;;;;;;;-150.27;100.00;61272.81;5214166;28;20068;-79
2022/09/25 02:22:06;;;;;;;8.03;1.90;;;;;;;-150.27;100.00;61272.81;5236531;28;20034;-80
2022/09/25 02:24:49;;;;;;;11.67;3.07;;;;;;;-150.27;100.00;61272.81;5235239;28;20087;-79
2022/09/25 02:27:23;;;;;;;7.97;2.03;;;;;;;-150.27;100.00;61272.81;5234692;28;20040;-80
2022/09/25 02:29:57;;;;;;;13.70;1.90;;;;;;;-150.27;100.00;61272.81;5217725;28;20082;-80
2022/09/25 02:32:30;;;;;;;4.93;2.08;;;;;;;-150.27;100.00;61272.81;5235380;28;20033;-79
2022/09/25 02:35:02;;;;;;;6.17;2.03;;;;;;;-150.27;100.00;61272.81;5235252;28;20476;-80
2022/09/25 02:37:33;;;;;;;6.93;1.97;;;;;;;-150.27;100.00;61272.81;5234906;28;20025;-79
2022/09/25 02:40:05;;;;;;;10.60;2.27;;;;;;;-150.27;100.00;61272.81;5234460;28;20022;-79
2022/09/25 02:42:59;;;;;;;9.73;2.43;;;;;;;-150.27;100.00;61272.81;5235381;28;20025;-78
2022/09/25 02:45:57;;;;;;;7.88;1.92;;;;;;;-150.27;100.00;61272.81;5235049;28;20108;-76
2022/09/25 02:48:50;;;;;;;11.63;3.10;;;;;;;-150.27;100.00;61272.81;5217309;28;20415;-79
2022/09/25 02:51:40;;;;;;;7.07;2.97;;;;;;;-150.27;100.00;61272.81;5235325;28;20408;-80
2022/09/25 02:54:20;;;;;;;13.87;2.10;;;;;;;-150.27;100.00;61272.81;5234569;28;20029;-80
2022/09/25 02:57:07;;;;;;;13.00;2.43;;;;;;;-150.27;100.00;61272.81;5229655;28;20033;-77
2022/09/25 02:59:48;;;;;;;7.60;2.00;;;;;;;-150.27;100.00;61272.81;5229293;28;20029;-76
2022/09/25 03:02:20;;;;;;;8.37;3.17;;;;;;;-150.27;100.00;61272.81;5234260;28;20029;-80
2022/09/25 03:04:52;;;;;;;8.40;2.10;;;;;;;-150.27;100.00;61272.81;5234445;28;20033;-79
2022/09/25 03:07:24;;;;;;;5.47;2.47;;;;;;;-150.27;100.00;61272.81;5234392;28;20052;-78
2022/09/25 03:09:57;;;;;;;8.70;2.23;;;;;;;-150.27;100.00;61272.81;5234304;28;20103;-79
2022/09/25 03:12:35;;;;;;;5.83;2.00;;;;;;;-150.27;100.00;61272.81;5233212;28;20060;-76
2022/09/25 03:15:07;;;;;;;7.40;2.37;;;;;;;-150.27;100.00;61272.81;5235298;28;20475;-77
2022/09/25 03:17:39;;;;;;;7.53;2.40;;;;;;;-150.27;100.00;61272.81;5234798;28;20144;-78
2022/09/25 03:20:10;;;;;;;5.03;2.20;;;;;;;-150.27;100.00;61272.81;5235055;28;20021;-80
2022/09/25 03:22:41;;;;;;;7.10;2.93;;;;;;;-150.27;100.00;61272.81;5234974;28;20444;-80
2022/09/25 03:25:15;;;;;;;8.23;2.10;;;;;;;-150.27;100.00;61272.81;5232358;28;20479;-75
2022/09/25 03:27:46;;;;;;;7.97;2.13;;;;;;;-150.27;100.00;61272.81;5234345;28;20502;-75
2022/09/25 03:30:17;;;;;;;8.60;2.00;;;;;;;-150.27;100.00;61272.81;5234387;28;20030;-80
2022/09/25 03:32:49;;;;;;;6.17;2.33;;;;;;;-150.27;100.00;61272.81;5234891;28;20146;-80
2022/09/25 03:35:20;;;;;;;10.30;2.50;;;;;;;-150.27;100.00;61272.81;5234110;28;20021;-77
2022/09/25 03:37:51;;;;;;;10.67;3.17;;;;;;;-150.27;100.00;61272.81;5235019;28;20021;-77
2022/09/25 03:40:22;;;;;;;6.40;2.13;;;;;;;-150.27;100.00;61272.81;5233762;28;20025;-77
2022/09/25 03:42:54;;;;;;;9.47;2.07;;;;;;;-150.27;100.00;61272.81;5234633;28;20057;-77
2022/09/25 03:45:25;;;;;;;10.47;3.07;;;;;;;-150.27;100.00;61272.81;5234347;28;20093;-76
2022/09/25 03:47:56;;;;;;;8.30;2.83;;;;;;;-150.27;100.00;61272.81;5234292;28;20025;-76
2022/09/25 03:50:28;;;;;;;6.20;2.77;;;;;;;-150.27;100.00;61272.81;5234485;28;20029;-80
2022/09/25 03:52:59;;;;;;;7.27;2.70;;;;;;;-150.27;100.00;61272.81;5234268;28;20028;-76
2022/09/25 03:55:30;;;;;;;7.53;3.23;;;;;;;-150.27;100.00;61272.81;5233512;28;20047;-80
2022/09/25 03:58:01;;;;;;;4.93;2.63;;;;;;;-150.27;100.00;61272.81;5227090;28;20037;-78
2022/09/25 04:00:33;;;;;;;6.77;2.70;;;;;;;-150.27;100.00;61272.81;5224570;28;20034;-77
2022/09/25 04:03:04;;;;;;;6.60;2.73;;;;;;;-150.27;100.00;61272.81;5223837;28;20035;-79
2022/09/25 04:05:35;;;;;;;6.53;3.00;;;;;;;-150.27;100.00;61272.81;5219333;28;20025;-80
2022/09/25 04:08:07;;;;;;;6.27;3.03;;;;;;;-150.27;100.00;61272.81;5224912;28;20061;-79
2022/09/25 04:10:39;;;;;;;7.20;2.80;;;;;;;-150.27;100.00;61272.81;5223092;28;20029;-77
2022/09/25 04:13:11;;;;;;;10.47;3.30;;;;;;;-150.27;100.00;61272.81;5225405;28;20107;-79
2022/09/25 04:15:42;;;;;;;13.20;4.27;;;;;;;-150.27;100.00;61272.81;5224563;28;20036;-80
2022/09/25 04:18:14;;;;;;;10.23;3.30;;;;;;;-150.27;100.00;61272.81;5224687;28;20025;-79
2022/09/25 04:20:45;;;;;;;10.13;3.93;;;;;;;-150.27;100.00;61272.81;5224912;28;20036;-75
2022/09/25 04:23:17;;;;;;;11.43;5.00;;;;;;;-150.27;100.00;61272.81;5223892;28;20065;-76
2022/09/25 04:25:48;;;;;;;8.97;3.43;;;;;;;-150.27;100.00;61272.81;5224245;28;20068;-75
2022/09/25 04:28:21;;;;;;;9.17;4.10;;;;;;;-150.27;100.00;61272.81;5224455;28;20072;-78
2022/09/25 04:30:52;;;;;;;8.60;3.97;;;;;;;-150.27;100.00;61272.81;5225395;28;20034;-79
2022/09/25 04:36:16;;;;;;;10.77;4.60;;;;;;;-150.27;100.00;61272.81;5225060;28;20033;-79
2022/09/25 04:38:47;;;;;;;14.20;5.10;;;;;;;-150.27;100.00;61272.81;5223221;28;20179;-79
2022/09/25 04:41:18;;;;;;;13.23;5.50;;;;;;;-150.27;100.00;61272.81;5224223;28;20117;-76
2022/09/25 04:43:50;;;;;;;9.53;5.03;;;;;;;-150.27;100.00;61272.81;5229269;28;20095;-79
2022/09/25 04:46:21;;;;;;;11.07;5.03;;;;;;;-150.27;100.00;61272.81;5224496;28;20033;-79
2022/09/25 04:48:52;;;;;;;8.80;5.00;;;;;;;-150.27;100.00;61272.81;5224491;28;20059;-76
2022/09/25 04:51:23;;;;;;;10.40;5.70;;;;;;;-150.27;100.00;61272.81;5224219;28;20037;-77
2022/09/25 04:53:55;;;;;;;10.57;5.97;;;;;;;-150.27;100.00;61272.81;5223549;28;20069;-79
2022/09/25 04:56:26;;;;;;;9.00;5.27;;;;;;;-150.27;100.00;61272.81;5224291;28;20038;-76
2022/09/25 04:58:58;;;;;;;9.77;5.60;;;;;;;-150.27;100.00;61272.81;5224671;28;20025;-76
2022/09/25 05:01:29;;;;;;;10.50;6.03;;;;;;;-150.27;100.00;61272.81;5224249;28;20038;-79
2022/09/25 05:04:00;;;;;;;7.73;5.13;;;;;;;-150.27;100.00;61272.81;5224414;28;20033;-78
2022/09/25 05:06:32;;;;;;;8.63;6.20;;;;;;;-150.27;100.00;61272.81;5224229;28;20044;-79
2022/09/25 05:09:03;;;;;;;9.83;5.97;;;;;;;-150.27;100.00;61272.81;5224424;28;20033;-79
2022/09/25 05:11:34;;;;;;;9.23;5.87;;;;;;;-150.27;100.00;61272.81;5220797;28;21331;-78
2022/09/25 05:14:06;;;;;;;9.53;6.20;;;;;;;-150.27;100.00;61272.81;5217868;28;20084;-78
2022/09/25 05:16:37;;;;;;;8.63;5.90;;;;;;;-150.27;100.00;61272.81;5226951;28;20034;-80
2022/09/25 05:19:09;;;;;;;7.87;5.60;;;;;;;-150.27;100.00;61272.81;5227680;28;20040;-78
2022/09/25 05:21:41;;;;;;;11.20;6.40;;;;;;;-150.27;100.00;61272.81;5228937;28;20053;-78
2022/09/25 05:24:13;;;;;;;13.50;6.77;;;;;;;-150.27;100.00;61272.81;5227612;28;20061;-78
2022/09/25 05:26:44;;;;;;;9.07;6.40;;;;;;;-150.27;100.00;61272.81;5227739;28;20030;-76
2022/09/25 05:29:15;;;;;;;12.00;6.37;;;;;;;-150.27;100.00;61272.81;5227619;28;20040;-79
2022/09/25 05:31:48;;;;;;;10.67;6.07;;;;;;;-150.27;100.00;61272.81;5227759;28;20029;-77
2022/09/25 05:34:19;;;;;;;11.87;5.70;;;;;;;-150.27;100.00;61272.81;5227871;28;20539;-80
2022/09/25 05:36:51;;;;;;;8.27;5.90;;;;;;;-150.27;100.00;61272.81;5227956;28;20048;-79
2022/09/25 05:39:22;;;;;;;9.43;6.53;;;;;;;-150.27;100.00;61272.81;5226566;28;20404;-76
2022/09/25 05:41:53;;;;;;;11.70;6.47;;;;;;;-150.27;100.00;61272.81;5228170;28;20049;-77
2022/09/25 05:44:27;;;;;;;10.93;6.63;;;;;;;-150.27;100.00;61272.81;5227630;28;20048;-79
2022/09/25 05:46:58;;;;;;;15.07;7.87;;;;;;;-150.27;100.00;61272.81;5227696;28;20034;-77
2022/09/25 05:49:29;;;;;;;10.57;7.50;;;;;;;-150.27;100.00;61272.81;5227639;28;20064;-79
2022/09/25 05:52:01;;;;;;;10.97;7.23;;;;;;;-150.27;100.00;61272.81;5228015;28;20089;-79
2022/09/25 05:54:32;;;;;;;10.47;6.70;;;;;;;-150.27;100.00;61272.81;5226078;28;20033;-79
2022/09/25 05:57:03;;;;;;;11.73;7.07;;;;;;;-150.27;100.00;61272.81;5227749;28;20714;-79
2022/09/25 05:59:34;;;;;;;10.77;7.23;;;;;;;-150.27;100.00;61272.81;5230114;28;20049;-78
2022/09/25 06:02:10;;;;;;;10.63;6.93;;;;;;;-150.27;100.00;61272.81;5218005;28;20029;-79
2022/09/25 06:04:41;;;;;;;8.43;6.70;;;;;;;-150.27;100.00;61272.81;5236419;28;20112;-79
2022/09/25 06:07:12;;;;;;;8.13;7.10;;;;;;;-150.27;100.00;61272.81;5235929;28;20038;-79
2022/09/25 06:09:44;;;;;;;9.80;7.90;;;;;;;-150.27;100.00;61272.81;5234681;28;20029;-79
2022/09/25 06:12:15;;;;;;;13.63;7.97;;;;;;;-150.27;100.00;61272.81;5236133;28;20088;-79
2022/09/25 06:14:47;;;;;;;13.50;8.00;;;;;;;-150.27;100.00;61272.81;5234981;28;20029;-76
2022/09/25 06:17:19;;;;;;;13.77;8.27;;;;;;;-150.27;100.00;61272.81;5235987;28;20562;-79
2022/09/25 06:19:50;;;;;;;14.40;8.80;;;;;;;-150.27;100.00;61272.81;5235500;28;20038;-78
2022/09/25 06:22:21;;;;;;;16.73;9.67;;;;;;;-150.27;100.00;61272.81;5235330;28;20468;-79
2022/09/25 06:24:52;;;;;;;15.83;9.17;;;;;;;-150.27;100.00;61272.81;5234965;28;20353;-80
2022/09/25 06:27:24;;;;;;;17.30;9.33;;;;;;;-150.27;100.00;61272.81;5235956;28;20115;-75
2022/09/25 06:29:55;;;;;;;19.57;9.37;;;;;;;-150.27;100.00;61272.81;5236125;28;20066;-79
2022/09/25 06:32:26;;;;;;;12.07;8.23;;;;;;;-150.27;100.00;61272.81;5235595;28;20087;-79
2022/09/25 06:34:58;;;;;;;17.93;8.60;;;;;;;-150.27;100.00;61272.81;5236040;28;20033;-80
2022/09/25 06:37:29;;;;;;;15.23;9.87;;;;;;;-150.27;100.00;61272.81;5215218;28;20040;-80
2022/09/25 06:40:01;;;;;;;13.47;9.53;;;;;;;-150.27;100.00;61272.81;5214346;28;20500;-79
2022/09/25 06:42:34;;;;;;;12.20;8.73;;;;;;;-150.27;100.00;61272.81;5214811;28;20421;-78
2022/09/25 06:45:05;;;;;;;11.90;8.23;;;;;;;-150.27;100.00;61272.81;5196844;28;20064;-79
2022/09/25 06:47:37;;;;;;;13.33;8.57;;;;;;;-150.27;100.00;61272.81;5214671;28;20053;-79
2022/09/25 06:50:08;;;;;;;13.07;8.70;;;;;;;-150.27;100.00;61272.81;5215229;28;20033;-79
2022/09/25 06:52:43;;;;;;;11.53;8.70;;;;;;;-150.27;100.00;61272.81;5197034;28;20022;-79
2022/09/25 06:55:15;;;;;;;12.17;7.87;;;;;;;-150.27;100.00;61272.81;5219401;28;20025;-79
2022/09/25 06:57:46;;;;;;;15.50;9.67;;;;;;;-150.27;100.00;61272.81;5215646;28;20776;-76
2022/09/25 07:00:18;;;;;;;15.10;9.13;;;;;;;-150.27;100.00;61272.81;5218015;28;20022;-79
2022/09/25 07:05:38;;;;;;;12.40;8.17;;;;;;;-150.27;100.00;61272.81;5225249;28;20034;-80
2022/09/25 07:08:12;;;;;;;11.57;7.87;;;;;;;-150.27;100.00;61272.81;5214423;28;20054;-77
2022/09/25 07:10:48;;;;;;;10.88;8.70;;;;;;;-150.27;100.00;61272.81;5213050;28;20096;-78
2022/09/25 07:13:23;;;;;;;12.90;8.40;;;;;;;-150.27;100.00;61272.81;5214485;28;20143;-78
2022/09/25 07:15:59;;;;;;;;;;;;;;;-150.27;100.00;61272.81;5214780;28;20117;-78
2022/09/25 07:18:30;;;;;;;;;;;;;;;-150.27;100.00;61272.81;5214852;28;19983;-77
2022/09/25 07:21:04;;;;;;;13.43;8.40;;;;;;;-150.27;100.00;61272.81;5214174;28;20376;-77
2022/09/25 07:23:35;;;;;;;14.95;8.85;;;;;;;-150.27;100.00;61272.81;5212932;28;20041;-77
2022/09/25 07:26:13;;;;;;;10.67;7.80;;;;;;;-150.27;100.00;61272.81;5213534;28;20789;-78
2022/09/25 07:28:44;;;;;;;10.20;7.27;;;;;;;-150.27;100.00;61272.81;5213866;28;20017;-78
2022/09/25 07:31:21;;;;;;;10.23;7.57;;;;;;;-150.27;100.00;61272.81;5213379;28;20033;-75
2022/09/25 07:33:53;;;;;;;14.87;8.07;;;;;;;-150.27;100.00;61272.81;5215302;28;20061;-74
2022/09/25 07:36:24;;;;;;;12.53;7.57;;;;;;;-150.27;100.00;61272.81;5194964;28;20030;-76
2022/09/25 07:38:56;;;;;;;11.17;7.60;;;;;;;-150.27;100.00;61272.81;5212864;28;20057;-76
2022/09/25 07:41:27;;;;;;;12.60;7.80;;;;;;;-150.27;100.00;61272.81;5213696;28;20535;-77
2022/09/25 07:43:59;;;;;;;12.97;6.70;;;;;;;-150.27;100.00;61272.81;5228646;28;20100;-78
2022/09/25 07:46:30;;;;;;;10.33;5.37;;;;;;;-150.27;100.00;61272.81;5234437;28;20052;-75
2022/09/25 07:49:02;;;;;;;13.37;6.03;;;;;;;-150.27;100.00;61272.81;5225747;28;20033;-80
2022/09/25 07:51:33;;;;;;;8.40;4.70;;;;;;;-150.27;100.00;61272.81;5194706;28;20108;-76
2022/09/25 07:54:04;;;;;;;8.90;4.83;;;;;;;-150.27;100.00;61272.81;5194018;28;20420;-76
2022/09/25 07:56:37;;;;;;;7.60;3.90;;;;;;;-150.27;100.00;61272.81;5194576;28;20756;-76
2022/09/25 07:59:08;;;;;;;7.50;2.97;;;;;;;-150.27;100.00;61272.81;5214109;28;20034;-76
2022/09/25 08:01:39;;;;;;;4.37;2.90;;;;;;;-150.27;100.00;61272.81;5196665;28;20424;-77
2022/09/25 08:04:11;;;;;;;6.63;3.03;;;;;;;-150.27;100.00;61272.81;5215885;28;20064;-76
2022/09/25 08:06:42;;;;;;;9.00;3.27;;;;;;;-150.27;100.00;61272.81;5215388;28;20038;-76
2022/09/25 08:09:13;;;;;;;5.50;2.22;;;;;;;-150.27;100.00;61272.81;5212822;28;20041;-76
2022/09/25 08:11:44;;;;;;;5.65;3.05;;;;;;;-150.27;100.00;61272.81;5212752;28;20040;-76
2022/09/25 08:14:17;;;;;;;6.88;2.47;;;;;;;-150.27;100.00;61272.81;5213524;28;20018;-75
2022/09/25 08:16:48;;;;;;;6.65;2.72;;;;;;;-150.27;100.00;61272.81;5215151;28;20037;-75
2022/09/25 08:19:22;;;;;;;6.25;2.40;;;;;;;-150.27;100.00;61272.81;5198118;28;20057;-75
2022/09/25 08:21:53;;;;;;;8.57;2.85;;;;;;;-150.27;100.00;61272.81;5204903;28;20065;-75
2022/09/25 08:24:24;;;;;;;5.80;2.30;;;;;;;-150.27;100.00;61272.81;5227351;28;20042;-75
2022/09/25 08:26:55;;;;;;;3.53;2.00;;;;;;;-150.27;100.00;61272.81;5213970;28;20030;-75
2022/09/25 08:29:27;;;;;;;5.65;1.85;;;;;;;-150.27;100.00;61272.81;5218961;28;20571;-76
2022/09/25 08:31:59;;;;;;;5.28;1.83;;;;;;;-150.27;100.00;61272.81;5230591;28;20104;-76
2022/09/25 08:34:30;;;;;;;6.32;2.05;;;;;;;-150.27;100.00;61272.81;5222796;28;20033;-75
2022/09/25 08:37:02;;;;;;;5.00;1.90;;;;;;;-150.27;100.00;61272.81;5213772;28;20040;-75
2022/09/25 08:39:33;;;;;;;3.55;1.50;;;;;;;-150.27;100.00;61272.81;5228811;28;20031;-74
2022/09/25 08:42:05;;;;;;;5.35;1.95;;;;;;;-150.27;100.00;61272.81;5228033;28;20029;-76
2022/09/25 08:44:40;;;;;;;4.15;1.23;;;;;;;-150.27;100.00;61272.81;5221082;28;20513;-77
2022/09/25 08:50:11;;;;;;;5.45;1.38;;;;;;;-150.27;100.00;61272.81;5230068;28;20125;-77
2022/09/25 08:52:47;;;;;;;4.45;1.48;;;;;;;-150.27;100.00;61272.81;5237873;28;20034;-77
2022/09/25 08:56:13;;;;;;;4.35;1.27;;;;;;;-150.27;100.00;61272.81;5208751;28;20411;-77
2022/09/25 08:58:24;;;;;;;5.80;2.17;;;;;;;-150.27;100.00;61272.81;5221185;28;20050;-77
2022/09/25 09:01:02;;;;;;;4.57;1.38;;;;;;;-150.27;100.00;61272.81;5220691;28;20060;-77
2022/09/25 09:03:43;;;;;;;5.60;1.08;;;;;;;-150.27;100.00;61272.81;5221742;28;20029;-75
2022/09/25 09:06:16;;;;;;;5.93;1.30;;;;;;;-150.27;100.00;61272.81;5214609;28;20050;-77
2022/09/25 09:08:54;;;;;;;4.78;1.40;;;;;;;-150.27;100.00;61272.81;5217126;28;20045;-77
2022/09/25 09:11:32;;;;;;;6.47;1.48;;;;;;;-150.27;100.00;61272.81;5222774;28;20026;-77
2022/09/25 09:14:06;;;;;;;5.80;1.50;;;;;;;-150.27;100.00;61272.81;5226020;28;20034;-77
2022/09/25 09:16:44;;;;;;;4.53;1.63;;;;;;;-150.27;100.00;61272.81;5204478;28;20030;-77
2022/09/25 09:19:15;;;;;;;9.48;2.00;;;;;;;-150.27;100.00;61272.81;5227598;28;20038;-75
2022/09/25 09:22:09;;;;;;;3.60;1.45;;;;;;;-150.27;100.00;61272.81;5210969;28;20416;-78
2022/09/25 09:24:46;;;;;;;4.90;1.38;;;;;;;-150.27;100.00;61272.81;5227782;28;20075;-76
2022/09/25 09:27:46;;;;;;;7.85;1.70;;;;;;;-150.27;100.00;61272.81;5236840;28;20136;-77
2022/09/25 09:30:41;;;;;;;1.95;0.93;;;;;;;-150.27;100.00;61272.81;5219679;28;20029;-77
2022/09/25 09:33:23;;;;;;;9.82;2.55;;;;;;;-150.27;100.00;61272.81;5216115;28;20033;-77
2022/09/25 09:36:19;;;;;;;4.55;1.38;;;;;;;-150.27;100.00;61272.81;5198988;28;20034;-76
2022/09/25 09:39:15;;;;;;;4.68;1.30;;;;;;;-150.27;100.00;61272.81;5215903;28;20029;-78
2022/09/25 09:42:14;;;;;;;4.45;1.42;;;;;;;-150.27;100.00;61272.81;5228147;28;20033;-76
2022/09/25 09:45:02;;;;;;;3.92;1.40;;;;;;;-150.27;100.00;61272.81;5215818;28;20049;-76
2022/09/25 09:48:10;;;;;;;7.20;1.42;;;;;;;-150.27;100.00;61272.81;5198457;28;20018;-76
2022/09/25 09:50:51;;;;;;;8.48;1.60;;;;;;;-150.27;100.00;61272.81;5216224;28;20045;-76
2022/09/25 09:53:39;;;;;;;3.60;1.60;;;;;;;-150.27;100.00;61272.81;5215016;28;20025;-77
2022/09/25 09:56:21;;;;;;;2.85;1.05;;;;;;;-150.27;100.00;61272.81;5215837;28;20080;-75
2022/09/25 09:58:54;;;;;;;6.88;1.23;;;;;;;-150.27;100.00;61272.81;5226080;28;20160;-74
2022/09/25 10:01:32;;;;;;;6.05;1.40;;;;;;;-150.27;100.00;61272.81;5228930;28;20026;-74
2022/09/25 10:04:09;;;;;;;4.00;1.30;;;;;;;-150.27;100.00;61272.81;5226909;28;20041;-75
2022/09/25 10:06:46;;;;;;;7.88;2.00;;;;;;;-150.27;100.00;61272.81;5217327;28;20385;-75
2022/09/25 10:09:17;;;;;;;4.32;1.23;;;;;;;-150.27;100.00;61272.81;5218944;28;20041;-75
2022/09/25 10:11:58;;;;;;;6.75;1.58;;;;;;;-150.27;100.00;61272.81;5227864;28;20332;-75
2022/09/25 10:14:37;;;;;;;4.60;1.20;;;;;;;-150.27;100.00;61272.81;5227084;28;20037;-75
2022/09/25 10:17:10;;;;;;;5.07;1.58;;;;;;;-150.27;100.00;61272.81;5227298;28;20104;-75
2022/09/25 10:19:52;;;;;;;4.82;1.45;;;;;;;-150.27;100.00;61272.81;5227170;28;20107;-74
2022/09/25 10:22:32;;;;;;;3.63;1.23;;;;;;;-150.27;100.00;61272.81;5227302;28;20021;-75
2022/09/25 10:25:05;;;;;;;5.25;1.23;;;;;;;-150.27;100.00;61272.81;5226267;28;20131;-75
2022/09/25 10:27:40;;;;;;;5.50;1.02;;;;;;;-150.27;100.00;61272.81;5226132;28;20036;-75
2022/09/25 10:30:16;;;;;;;3.35;1.08;;;;;;;-150.27;100.00;61272.81;5226892;28;20056;-74
2022/09/25 10:33:13;;;;;;;3.90;1.20;;;;;;;-150.27;100.00;61272.81;5227475;28;20030;-75
2022/09/25 10:35:45;;;;;;;4.10;1.17;;;;;;;-150.27;100.00;61272.81;5226659;28;20484;-74
2022/09/25 10:38:31;;;;;;;3.83;0.87;;;;;;;-150.27;100.00;61272.81;5225367;28;20044;-74
2022/09/25 10:41:19;;;;;;;6.72;1.15;;;;;;;-150.27;100.00;61272.81;5228757;28;20033;-75
2022/09/25 10:43:55;;;;;;;5.55;1.27;;;;;;;-150.27;100.00;61272.81;5229352;28;20029;-77
2022/09/25 10:52:18;;;;;;;5.38;1.00;;;;;;;-150.27;100.00;61272.81;5226842;28;20681;-75
2022/09/25 10:54:51;;;;;;;3.30;1.10;;;;;;;-150.27;100.00;61272.81;5215880;28;20064;-75
2022/09/25 10:57:37;;;;;;;3.65;1.10;;;;;;;-150.27;100.00;61272.81;5225135;28;20068;-74
2022/09/25 11:00:23;;;;;;;3.95;1.00;;;;;;;-150.27;100.00;61272.81;5218689;28;20021;-75
2022/09/25 11:03:01;;;;;;;4.05;1.00;;;;;;;-150.27;100.00;61272.81;5226742;28;20091;-75
2022/09/25 11:05:35;;;;;;;5.47;1.58;;;;;;;-150.27;100.00;61272.81;5225642;28;20036;-74
2022/09/25 11:08:08;;;;;;;5.25;1.30;;;;;;;-150.27;100.00;61272.81;5224462;28;20060;-76
2022/09/25 11:10:50;;;;;;;5.95;0.88;;;;;;;-150.27;100.00;61272.81;5224749;28;20022;-77
2022/09/25 11:13:25;;;;;;;4.25;1.13;;;;;;;-150.27;100.00;61272.81;5225382;28;20037;-75
2022/09/25 11:15:59;;;;;;;4.68;1.00;;;;;;;-150.27;100.00;61272.81;5225608;28;20116;-75
2022/09/25 11:18:43;;;;;;;3.42;1.00;;;;;;;-150.27;100.00;61272.81;5224242;28;20034;-75
2022/09/25 11:21:24;;;;;;;5.57;0.90;;;;;;;-150.27;100.00;61272.81;5224511;28;20029;-76
2022/09/25 11:24:00;;;;;;;10.70;2.20;;;;;;;-150.27;100.00;61272.81;5225775;28;20036;-75
2022/09/25 11:26:58;;;;;;;6.50;1.40;;;;;;;-150.27;100.00;61272.81;5224289;28;20773;-76
2022/09/25 11:29:46;;;;;;;4.78;0.93;;;;;;;-150.27;100.00;61272.81;5224420;28;20135;-77
2022/09/25 11:32:28;;;;;;;4.47;1.17;;;;;;;-150.27;100.00;61272.81;5225437;28;20435;-76
2022/09/25 11:35:33;;;;;;;13.13;1.67;;;;;;;-150.27;100.00;61272.81;5216353;28;20033;-77
2022/09/25 11:41:11;;;;;;;4.47;0.77;;;;;;;-150.27;100.00;61272.81;5214804;28;20064;-76
2022/09/25 11:41:26;;;;;;;4.75;0.80;;;;;;;-150.27;100.00;61272.81;5224794;28;20041;-77
2022/09/25 11:44:17;;;;;;;4.78;0.80;;;;;;;-150.27;100.00;61272.81;5218959;28;20044;-76
2022/09/25 11:47:14;;;;;;;5.85;1.35;;;;;;;-150.27;100.00;61272.81;5234578;28;20716;-76
2022/09/25 11:49:52;;;;;;;3.85;1.00;;;;;;;-150.27;100.00;61272.81;5229565;28;20120;-74
2022/09/25 11:52:39;;;;;;;5.40;1.20;;;;;;;-150.27;100.00;61272.81;5217659;28;20462;-75
2022/09/25 11:55:44;;;;;;;5.03;0.80;;;;;;;-150.27;100.00;61272.81;5194861;28;20044;-76
2022/09/25 11:58:32;;;;;;;2.75;0.70;;;;;;;-150.27;100.00;61272.81;5213356;28;20037;-76
2022/09/25 12:01:31;;;;;;;2.35;0.80;;;;;;;-150.27;100.00;61272.81;5196280;28;20111;-76
2022/09/25 12:04:31;;;;;;;5.15;0.93;;;;;;;-150.27;100.00;61272.81;5213004;28;20116;-73
2022/09/25 12:07:20;;;;;;;3.70;0.77;;;;;;;-150.27;100.00;61272.81;5195566;28;20464;-76